createdAt,value
2018-10-21T00:00:01.392Z,51.80
2018-10-21T00:02:31.591Z,52.23
2018-10-21T00:05:00.933Z,59.03
2018-10-21T00:07:30.437Z,48.10
2018-10-21T00:10:06.564Z,48.93
2018-10-21T00:12:36.358Z,47.73
2018-10-21T00:15:07.906Z,51.37
2018-10-21T00:17:38.022Z,50.77
2018-10-21T00:20:09.565Z,51.40
2018-10-21T00:22:39.253Z,53.37
2018-10-21T00:25:09.601Z,53.03
2018-10-21T00:27:39.246Z,54.47
2018-10-21T00:30:09.408Z,51.57
2018-10-21T00:32:44.219Z,52.57
2018-10-21T00:35:16.509Z,57.27
2018-10-21T00:37:54.409Z,50.40
2018-10-21T00:40:25.910Z,50.73
2018-10-21T00:43:00.324Z,53.90
2018-10-21T00:45:31.659Z,53.10
2018-10-21T00:48:01.741Z,62.57
2018-10-21T00:50:32.382Z,51.20
2018-10-21T00:53:02.423Z,52.77
2018-10-21T00:55:35.540Z,57.13
2018-10-21T00:58:04.869Z,54.83
2018-10-21T01:00:34.809Z,59.97
2018-10-21T01:03:04.973Z,61.90
2018-10-21T01:05:34.066Z,57.60
2018-10-21T01:08:04.921Z,56.07
2018-10-21T01:10:34.293Z,56.80
2018-10-21T01:13:04.751Z,53.80
2018-10-21T01:15:35.340Z,54.73
2018-10-21T01:18:04.844Z,57.80
2018-10-21T01:20:36.295Z,60.63
2018-10-21T01:23:09.407Z,62.03
2018-10-21T01:25:40.221Z,65.00
2018-10-21T01:28:10.213Z,57.60
2018-10-21T01:30:41.603Z,55.50
2018-10-21T01:33:13.288Z,62.97
2018-10-21T01:35:42.160Z,57.97
2018-10-21T01:38:13.406Z,55.93
2018-10-21T01:40:47.177Z,62.27
2018-10-21T01:43:22.501Z,55.70
2018-10-21T01:45:52.437Z,68.27
2018-10-21T01:48:24.118Z,64.40
2018-10-21T01:50:54.782Z,55.57
2018-10-21T01:53:27.746Z,63.90
2018-10-21T01:56:00.427Z,63.03
2018-10-21T01:58:32.275Z,51.30
2018-10-21T02:01:01.386Z,60.80
2018-10-21T02:03:30.470Z,55.77
2018-10-21T02:05:59.484Z,63.50
2018-10-21T02:08:29.250Z,65.23
2018-10-21T02:10:59.251Z,64.30
2018-10-21T02:13:33.500Z,65.63
2018-10-21T02:16:03.400Z,64.63
2018-10-21T02:18:33.115Z,59.13
2018-10-21T02:21:03.493Z,63.27
2018-10-21T02:23:32.642Z,64.67
2018-10-21T02:26:02.790Z,62.53
2018-10-21T02:28:31.858Z,56.00
2018-10-21T02:31:05.461Z,61.20
2018-10-21T02:33:35.707Z,67.60
2018-10-21T02:36:05.535Z,62.70
2018-10-21T02:38:37.100Z,60.27
2018-10-21T02:41:30.462Z,63.37
2018-10-21T02:44:01.299Z,59.60
2018-10-21T02:46:33.228Z,60.57
2018-10-21T02:49:05.089Z,56.67
2018-10-21T02:51:34.213Z,60.93
2018-10-21T02:54:05.689Z,53.90
2018-10-21T02:56:36.316Z,57.00
2018-10-21T02:59:06.157Z,57.27
2018-10-21T03:01:35.206Z,66.13
2018-10-21T03:04:04.514Z,60.03
2018-10-21T03:06:35.312Z,63.73
2018-10-21T03:09:05.824Z,56.63
2018-10-21T03:11:35.649Z,62.30
2018-10-21T03:14:07.803Z,64.53
2018-10-21T03:16:39.067Z,67.27
2018-10-21T03:19:10.463Z,62.43
2018-10-21T03:21:40.366Z,58.93
2018-10-21T03:24:11.354Z,59.73
2018-10-21T03:26:41.486Z,63.03
2018-10-21T03:29:10.912Z,61.53
2018-10-21T03:31:40.090Z,65.37
2018-10-21T03:34:10.849Z,63.17
2018-10-21T03:36:40.051Z,60.13
2018-10-21T03:39:10.606Z,62.50
2018-10-21T03:41:40.381Z,54.93
2018-10-21T03:44:11.120Z,57.27
2018-10-21T03:46:43.082Z,56.77
2018-10-21T03:52:12.617Z,57.07
2018-10-21T03:54:47.960Z,59.87
2018-10-21T03:57:24.154Z,61.47
2018-10-21T03:59:53.589Z,51.50
2018-10-21T04:02:22.569Z,56.50
2018-10-21T04:04:51.474Z,55.20
2018-10-21T04:07:24.081Z,54.50
2018-10-21T04:09:54.417Z,54.00
2018-10-21T04:12:23.483Z,51.80
2018-10-21T04:14:54.018Z,51.00
2018-10-21T04:17:24.446Z,49.33
2018-10-21T04:19:55.305Z,47.40
2018-10-21T04:22:28.227Z,51.97
2018-10-21T04:24:57.213Z,49.90
2018-10-21T04:27:28.872Z,48.33
2018-10-21T04:30:00.026Z,48.73
2018-10-21T04:32:34.926Z,47.53
2018-10-21T04:35:05.077Z,47.90
2018-10-21T04:39:50.879Z,46.57
2018-10-21T04:42:22.573Z,50.43
2018-10-21T04:44:51.495Z,47.37
2018-10-21T04:47:22.539Z,45.17
2018-10-21T04:49:52.858Z,43.63
2018-10-21T04:52:22.637Z,47.37
2018-10-21T04:55:00.335Z,47.83
2018-10-21T04:57:31.504Z,47.37
2018-10-21T05:00:04.124Z,50.40
2018-10-21T05:02:33.218Z,45.43
2018-10-21T05:05:02.351Z,50.90
2018-10-21T05:07:31.337Z,45.67
2018-10-21T05:10:01.338Z,45.17
2018-10-21T05:12:30.588Z,46.37
2018-10-21T05:14:59.625Z,48.40
2018-10-21T05:17:29.376Z,44.90
2018-10-21T05:20:00.067Z,45.27
2018-10-21T05:22:32.235Z,49.63
2018-10-21T05:25:04.052Z,48.77
2018-10-21T05:27:34.319Z,46.40
2018-10-21T05:30:03.582Z,48.23
2018-10-21T05:32:33.973Z,55.37
2018-10-21T05:35:04.416Z,51.20
2018-10-21T05:37:34.504Z,52.53
2018-10-21T05:40:04.514Z,45.43
2018-10-21T05:42:40.220Z,53.27
2018-10-21T05:45:09.709Z,47.13
2018-10-21T05:47:39.828Z,46.60
2018-10-21T05:50:12.010Z,53.10
2018-10-21T05:53:12.679Z,50.73
2018-10-21T05:55:45.705Z,47.50
2018-10-21T05:58:17.605Z,52.77
2018-10-21T06:00:47.249Z,61.90
2018-10-21T06:03:16.501Z,53.30
2018-10-21T06:05:50.883Z,50.80
2018-10-21T06:08:21.279Z,56.17
2018-10-21T06:10:53.727Z,53.07
2018-10-21T06:13:27.383Z,54.67
2018-10-21T06:15:58.934Z,57.17
2018-10-21T06:18:32.096Z,53.60
2018-10-21T06:21:05.537Z,57.70
2018-10-21T06:23:34.399Z,51.80
2018-10-21T06:26:03.206Z,58.50
2018-10-21T06:28:32.293Z,56.77
2018-10-21T06:31:01.085Z,55.37
2018-10-21T06:33:40.297Z,57.53
2018-10-21T06:36:11.407Z,62.60
2018-10-21T06:38:40.492Z,58.43
2018-10-21T06:41:09.637Z,68.03
2018-10-21T06:43:38.416Z,57.80
2018-10-21T06:46:07.287Z,58.53
2018-10-21T06:48:36.199Z,60.03
2018-10-21T06:51:05.212Z,56.70
2018-10-21T06:53:34.180Z,55.40
2018-10-21T06:56:03.092Z,55.33
2018-10-21T06:58:32.135Z,59.17
2018-10-21T07:01:11.287Z,56.93
2018-10-21T07:03:40.150Z,64.87
2018-10-21T07:06:14.966Z,51.17
2018-10-21T07:08:44.325Z,62.77
2018-10-21T07:11:13.549Z,55.00
2018-10-21T07:13:42.564Z,61.23
2018-10-21T07:16:11.928Z,56.37
2018-10-21T07:18:41.321Z,58.03
2018-10-21T07:21:10.335Z,55.83
2018-10-21T07:23:39.772Z,62.53
2018-10-21T07:26:09.288Z,75.60
2018-10-21T07:28:38.317Z,54.33
2018-10-21T07:31:07.106Z,53.47
2018-10-21T07:33:36.740Z,54.27
2018-10-21T07:36:06.917Z,58.00
2018-10-21T07:38:35.827Z,55.67
2018-10-21T07:41:04.921Z,55.17
2018-10-21T07:43:33.891Z,59.30
2018-10-21T07:46:02.845Z,57.13
2018-10-21T07:48:32.426Z,51.90
2018-10-21T07:51:01.220Z,57.30
2018-10-21T07:53:30.157Z,56.47
2018-10-21T07:55:59.123Z,56.33
2018-10-21T07:58:28.264Z,64.80
2018-10-21T08:00:58.690Z,57.97
2018-10-21T08:03:27.503Z,52.07
2018-10-21T08:06:19.067Z,58.67
2018-10-21T08:08:49.702Z,61.27
2018-10-21T08:11:18.489Z,63.90
2018-10-21T08:13:47.477Z,60.23
2018-10-21T08:16:16.609Z,60.40
2018-10-21T08:18:46.104Z,49.20
2018-10-21T08:21:15.064Z,56.60
2018-10-21T08:23:43.720Z,53.70
2018-10-21T08:26:12.688Z,53.90
2018-10-21T08:28:48.119Z,55.23
2018-10-21T08:31:17.202Z,49.30
2018-10-21T08:33:46.066Z,51.77
2018-10-21T08:36:15.088Z,53.43
2018-10-21T08:38:43.966Z,55.93
2018-10-21T08:41:13.568Z,50.70
2018-10-21T08:43:43.360Z,53.33
2018-10-21T08:46:12.474Z,56.63
2018-10-21T08:48:42.356Z,51.03
2018-10-21T08:51:13.763Z,51.83
2018-10-21T08:53:43.079Z,56.67
2018-10-21T08:56:12.189Z,51.70
2018-10-21T08:58:41.294Z,56.07
2018-10-21T09:01:11.842Z,50.93
2018-10-21T09:03:40.807Z,55.33
2018-10-21T09:06:09.904Z,54.13
2018-10-21T09:08:38.865Z,47.10
2018-10-21T09:11:07.792Z,51.63
2018-10-21T09:13:36.884Z,54.67
2018-10-21T09:16:07.241Z,53.50
2018-10-21T09:18:36.104Z,44.83
2018-10-21T09:21:05.005Z,49.53
2018-10-21T09:23:33.884Z,58.53
2018-10-21T09:26:03.024Z,53.37
2018-10-21T09:28:32.080Z,48.13
2018-10-21T09:31:01.469Z,49.80
2018-10-21T09:33:31.067Z,49.27
2018-10-21T09:36:00.186Z,52.13
2018-10-21T09:38:33.921Z,49.93
2018-10-21T09:41:02.941Z,54.93
2018-10-21T09:43:32.913Z,46.20
2018-10-21T09:46:01.793Z,49.60
2018-10-21T09:48:31.561Z,53.73
2018-10-21T09:51:04.311Z,55.57
2018-10-21T09:53:33.743Z,47.13
2018-10-21T09:56:02.791Z,50.13
2018-10-21T09:58:32.611Z,53.70
2018-10-21T10:01:12.101Z,54.43
2018-10-21T10:03:41.089Z,50.07
2018-10-21T10:06:10.038Z,50.10
2018-10-21T10:08:39.369Z,50.07
2018-10-21T10:11:09.110Z,49.97
2018-10-21T10:13:40.570Z,50.53
2018-10-21T10:16:19.106Z,54.10
2018-10-21T10:18:49.313Z,46.50
2018-10-21T10:21:19.349Z,49.23
2018-10-21T10:23:49.638Z,46.90
2018-10-21T10:26:21.003Z,45.03
2018-10-21T10:28:50.196Z,44.90
2018-10-21T10:31:25.042Z,52.60
2018-10-21T10:33:54.356Z,44.57
2018-10-21T10:36:23.305Z,48.20
2018-10-21T10:38:52.503Z,48.37
2018-10-21T10:41:21.609Z,52.23
2018-10-21T10:43:50.611Z,46.97
2018-10-21T10:46:20.099Z,58.90
2018-10-21T10:48:49.049Z,45.03
2018-10-21T10:51:17.976Z,46.83
2018-10-21T10:53:46.802Z,49.73
2018-10-21T10:56:15.870Z,48.13
2018-10-21T10:58:47.118Z,48.53
2018-10-21T11:01:16.364Z,46.83
2018-10-21T11:03:46.182Z,57.70
2018-10-21T11:06:15.415Z,59.17
2018-10-21T11:08:44.618Z,39.80
2018-10-21T11:11:13.773Z,50.47
2018-10-21T11:13:44.649Z,50.23
2018-10-21T11:16:13.772Z,54.57
2018-10-21T11:18:42.600Z,51.83
2018-10-21T11:21:13.213Z,50.77
2018-10-21T11:23:44.691Z,49.47
2018-10-21T11:26:13.741Z,49.70
2018-10-21T11:28:42.847Z,48.37
2018-10-21T11:31:12.906Z,52.33
2018-10-21T11:33:42.154Z,50.60
2018-10-21T11:36:11.356Z,54.10
2018-10-21T11:38:42.084Z,50.00
2018-10-21T11:41:14.255Z,49.03
2018-10-21T11:43:44.417Z,70.37
2018-10-21T11:46:16.770Z,44.87
2018-10-21T11:48:47.327Z,56.50
2018-10-21T11:51:16.261Z,51.87
2018-10-21T11:53:47.408Z,52.93
2018-10-21T11:56:16.783Z,55.00
2018-10-21T11:58:46.530Z,50.43
2018-10-21T12:01:15.576Z,51.23
2018-10-21T12:03:45.814Z,52.43
2018-10-21T12:06:18.745Z,52.30
2018-10-21T12:08:48.028Z,50.97
2018-10-21T12:11:17.325Z,46.80
2018-10-21T12:13:49.403Z,45.33
2018-10-21T12:16:22.149Z,50.80
2018-10-21T12:18:52.432Z,53.97
2018-10-21T12:21:21.876Z,46.30
2018-10-21T12:23:51.130Z,45.87
2018-10-21T12:26:22.368Z,55.50
2018-10-21T12:28:51.919Z,45.23
2018-10-21T12:31:28.839Z,43.67
2018-10-21T12:34:02.706Z,52.97
2018-10-21T12:36:33.120Z,46.20
2018-10-21T12:39:02.331Z,43.33
2018-10-21T12:41:32.413Z,50.40
2018-10-21T12:44:08.474Z,44.73
2018-10-21T12:46:40.203Z,49.03
2018-10-21T12:49:11.525Z,50.97
2018-10-21T12:51:45.894Z,47.40
2018-10-21T12:54:18.704Z,47.10
2018-10-21T12:56:49.207Z,45.30
2018-10-21T12:59:20.943Z,50.00
2018-10-21T13:01:52.632Z,46.63
2018-10-21T13:04:23.240Z,47.47
2018-10-21T13:06:54.537Z,50.17
2018-10-21T13:09:28.320Z,43.67
2018-10-21T13:11:59.530Z,52.70
2018-10-21T13:14:29.077Z,40.27
2018-10-21T13:17:01.541Z,48.73
2018-10-21T13:19:32.689Z,48.70
2018-10-21T13:22:02.419Z,46.23
2018-10-21T13:24:33.697Z,42.53
2018-10-21T13:27:04.648Z,42.83
2018-10-21T13:29:40.438Z,41.53
2018-10-21T13:32:23.592Z,43.20
2018-10-21T13:34:52.666Z,48.10
2018-10-21T13:37:22.936Z,40.10
2018-10-21T13:39:52.912Z,43.17
2018-10-21T13:44:58.655Z,45.03
2018-10-21T13:47:31.807Z,41.73
2018-10-21T13:50:04.432Z,45.00
2018-10-21T13:52:34.058Z,40.23
2018-10-21T13:55:04.675Z,46.50
2018-10-21T13:57:36.998Z,41.47
2018-10-21T14:00:08.318Z,40.60
2018-10-21T14:02:38.613Z,42.87
2018-10-21T14:05:10.377Z,39.30
2018-10-21T14:07:43.595Z,41.07
2018-10-21T14:10:15.224Z,39.73
2018-10-21T14:12:46.118Z,35.10
2018-10-21T14:15:17.339Z,38.20
2018-10-21T14:17:46.809Z,39.40
2018-10-21T14:20:17.965Z,33.77
2018-10-21T14:22:47.659Z,34.00
2018-10-21T14:25:16.782Z,37.20
2018-10-21T14:27:46.344Z,35.37
2018-10-21T14:30:15.623Z,37.37
2018-10-21T14:32:44.620Z,35.97
2018-10-21T14:35:14.816Z,45.17
2018-10-21T14:37:44.766Z,38.63
2018-10-21T14:40:15.385Z,36.67
2018-10-21T14:42:44.590Z,37.87
2018-10-21T14:45:16.158Z,37.70
2018-10-21T14:47:45.259Z,36.27
2018-10-21T14:50:16.422Z,37.03
2018-10-21T14:52:45.590Z,42.27
2018-10-21T14:55:16.784Z,42.83
2018-10-21T14:57:45.714Z,37.80
2018-10-21T15:00:15.573Z,42.63
2018-10-21T15:02:44.982Z,30.90
2018-10-21T15:05:15.243Z,38.63
2018-10-21T15:07:46.186Z,39.90
2018-10-21T15:10:17.610Z,42.70
2018-10-21T15:12:51.989Z,46.47
2018-10-21T15:15:22.668Z,37.00
2018-10-21T15:17:53.332Z,36.43
2018-10-21T15:20:24.027Z,40.03
2018-10-21T15:22:54.363Z,43.70
2018-10-21T15:25:27.432Z,43.77
2018-10-21T15:27:57.927Z,43.53
2018-10-21T15:30:27.999Z,43.00
2018-10-21T15:33:01.676Z,39.53
2018-10-21T15:35:32.182Z,43.40
2018-10-21T15:38:04.260Z,41.27
2018-10-21T15:40:36.714Z,41.60
2018-10-21T15:43:06.064Z,42.27
2018-10-21T15:46:49.109Z,40.50
2018-10-21T15:49:21.121Z,41.53
2018-10-21T15:51:58.320Z,41.23
2018-10-21T15:58:18.510Z,45.63
2018-10-21T16:00:47.976Z,36.63
2018-10-21T16:06:02.436Z,40.70
2018-10-21T16:08:39.914Z,42.00
2018-10-21T16:11:17.524Z,42.93
2018-10-21T16:14:07.443Z,43.33
2018-10-21T16:16:44.632Z,40.50
2018-10-21T16:22:39.040Z,43.47
2018-10-21T16:25:11.347Z,46.23
2018-10-21T16:32:16.237Z,48.30
2018-10-21T16:34:54.844Z,43.03
2018-10-21T16:42:04.615Z,45.03
2018-10-21T16:50:40.050Z,48.53
2018-10-21T16:54:21.975Z,42.50
2018-10-21T17:11:24.018Z,45.37
2018-10-21T17:13:56.554Z,43.03
2018-10-21T17:16:35.008Z,41.97
2018-10-21T17:19:09.684Z,43.97
2018-10-21T17:21:41.967Z,45.43
2018-10-21T17:24:20.789Z,44.30
2018-10-21T17:26:51.958Z,47.67
2018-10-21T17:29:31.570Z,50.73
2018-10-21T17:32:02.215Z,48.67
2018-10-21T17:34:33.092Z,50.47
2018-10-21T17:37:44.546Z,46.17
2018-10-21T17:40:15.952Z,48.10
2018-10-21T17:42:54.009Z,50.97
2018-10-21T17:45:24.836Z,55.17
2018-10-21T17:47:57.622Z,58.03
2018-10-21T17:50:32.748Z,64.03
2018-10-21T17:53:08.186Z,63.53
2018-10-21T17:55:43.006Z,58.60
2018-10-21T17:58:12.965Z,48.30
2018-10-21T18:00:45.734Z,43.33
2018-10-21T18:03:18.817Z,48.90
2018-10-21T18:05:51.638Z,50.37
2018-10-21T18:08:21.117Z,51.10
2018-10-21T18:10:50.360Z,55.90
2018-10-21T18:13:21.208Z,48.27
2018-10-21T18:16:18.805Z,55.87
2018-10-21T18:18:50.041Z,57.93
2018-10-21T18:21:19.449Z,51.67
2018-10-21T18:23:50.464Z,52.17
2018-10-21T18:26:40.699Z,52.10
2018-10-21T18:29:47.761Z,51.07
2018-10-21T18:32:46.893Z,48.43
2018-10-21T18:35:17.983Z,56.37
2018-10-21T18:37:48.615Z,58.50
2018-10-21T18:40:21.495Z,55.53
2018-10-21T18:43:16.383Z,54.50
2018-10-21T18:46:17.812Z,53.90
2018-10-21T18:51:55.961Z,56.07
2018-10-21T18:54:50.719Z,60.27
2018-10-21T18:57:39.388Z,52.17
2018-10-21T19:00:17.553Z,59.20
2018-10-21T19:02:56.481Z,62.87
2018-10-21T19:05:29.112Z,59.33
2018-10-21T19:10:50.702Z,61.07
2018-10-21T19:15:57.454Z,64.63
2018-10-21T19:18:28.019Z,60.73
2018-10-21T19:21:02.649Z,57.23
2018-10-21T19:23:33.999Z,60.67
2018-10-21T19:26:11.592Z,61.93
2018-10-21T19:31:22.677Z,66.87
2018-10-21T19:33:56.815Z,66.87
2018-10-21T19:36:27.661Z,67.80
2018-10-21T19:39:00.258Z,67.20
2018-10-21T19:44:45.402Z,79.47
2018-10-21T19:47:19.356Z,73.37
2018-10-21T19:49:53.786Z,72.07
2018-10-21T19:52:31.334Z,67.60
2018-10-21T19:55:27.390Z,71.33
2018-10-21T19:58:08.058Z,90.63
2018-10-21T20:00:38.066Z,77.30
2018-10-21T20:03:10.278Z,77.70
2018-10-21T20:05:39.632Z,78.40
2018-10-21T20:08:09.720Z,86.37
2018-10-21T20:10:39.341Z,96.80
2018-10-21T20:13:10.296Z,93.47
2018-10-21T20:15:42.858Z,95.40
2018-10-21T20:18:14.684Z,95.67
2018-10-21T20:20:47.040Z,94.10
2018-10-21T20:23:21.103Z,92.13
2018-10-21T20:25:57.186Z,92.17
2018-10-21T20:28:30.205Z,100.60
2018-10-21T20:31:06.949Z,97.93
2018-10-21T20:33:38.659Z,106.97
2018-10-21T20:36:13.346Z,102.03
2018-10-21T20:38:43.230Z,94.17
2018-10-21T20:41:15.643Z,96.27
2018-10-21T20:43:47.908Z,106.97
2018-10-21T20:46:22.805Z,112.10
2018-10-21T20:48:52.433Z,98.93
2018-10-21T20:51:29.141Z,111.37
2018-10-21T20:54:02.475Z,96.73
2018-10-21T20:56:34.871Z,112.23
2018-10-21T20:59:05.948Z,99.10
2018-10-21T21:01:38.156Z,98.63
2018-10-21T21:04:12.238Z,93.60
2018-10-21T21:06:44.459Z,97.47
2018-10-21T21:09:17.655Z,96.97
2018-10-21T21:11:47.674Z,95.30
2018-10-21T21:14:18.630Z,87.57
2018-10-21T21:16:47.963Z,92.17
2018-10-21T21:19:19.183Z,88.67
2018-10-21T21:21:51.709Z,87.43
2018-10-21T21:24:21.664Z,81.10
2018-10-21T21:26:54.074Z,83.53
2018-10-21T21:29:26.041Z,76.90
2018-10-21T21:31:59.581Z,80.53
2018-10-21T21:34:29.979Z,81.30
2018-10-21T21:37:02.202Z,84.87
2018-10-21T21:39:35.192Z,97.23
2018-10-21T21:42:05.616Z,89.40
2018-10-21T21:44:39.040Z,91.40
2018-10-21T21:47:09.503Z,117.53
2018-10-21T21:49:40.102Z,103.53
2018-10-21T21:52:09.369Z,90.30
2018-10-21T21:54:39.185Z,96.53
2018-10-21T21:57:08.966Z,95.57
2018-10-21T21:59:44.424Z,97.93
2018-10-21T22:02:14.783Z,90.30
2018-10-21T22:04:43.756Z,88.50
2018-10-21T22:07:13.183Z,90.73
2018-10-21T22:09:54.886Z,89.70
2018-10-21T22:12:24.899Z,79.40
2018-10-21T22:14:59.489Z,95.20
2018-10-21T22:17:32.846Z,100.33
2018-10-21T22:20:04.484Z,121.33
2018-10-21T22:22:45.164Z,94.47
2018-10-21T22:25:16.896Z,91.87
2018-10-21T22:27:59.768Z,106.63
2018-10-21T22:30:29.086Z,88.90
2018-10-21T22:32:58.954Z,81.67
2018-10-21T22:35:30.297Z,65.07
2018-10-21T22:38:01.318Z,54.30
2018-10-21T22:40:31.019Z,56.07
2018-10-21T22:43:00.239Z,67.17
2018-10-21T22:45:29.254Z,51.50
2018-10-21T22:48:00.280Z,52.30
2018-10-21T22:50:31.401Z,53.93
2018-10-21T22:53:03.437Z,43.70
2018-10-21T22:55:32.810Z,48.00
2018-10-21T22:58:06.308Z,41.93
2018-10-21T23:00:35.568Z,37.40
2018-10-21T23:03:05.394Z,47.83
2018-10-21T23:05:42.151Z,47.67
2018-10-21T23:08:26.843Z,49.83
2018-10-21T23:11:04.096Z,46.87
2018-10-21T23:16:42.948Z,57.10
2018-10-21T23:19:29.100Z,56.73
2018-10-21T23:25:09.208Z,36.73
2018-10-21T23:27:55.038Z,36.87
2018-10-21T23:30:30.954Z,30.50
2018-10-21T23:33:01.684Z,23.67
2018-10-21T23:35:36.313Z,27.73
2018-10-21T23:38:40.867Z,21.47
2018-10-21T23:41:10.867Z,22.17
2018-10-21T23:43:42.661Z,24.93
2018-10-21T23:46:14.116Z,26.80
2018-10-21T23:48:47.689Z,26.27
2018-10-21T23:51:22.161Z,18.20
2018-10-21T23:53:54.129Z,34.23
2018-10-21T23:56:31.276Z,24.93
2018-10-21T23:59:06.209Z,19.80
